Latest Coastal Weather Observations for Edithburgh

IDS60701

Issued at 9:21 pm CDT Monday 20 February 2017 (issued every 10 minutes, with the page automatically refreshed every 10 minutes)

About coastal observations | Map of coastal stations | Coastal observations for SA | Marine services | Other Formats
Station Details ID: 022046 Name: EDITHBURGH Lat: -35.11 Lon: 137.74 Height: 6.0 m
Data from the previous 72 hours. | See also: Recent months at Edithburgh
Date/Time
CDT
Temp
°C
Wind Pressure Rain since
9am
mm
Weather Cloud Vis
km
Sea
Height
m
Swell
Dir  Spd
kts
Gust
kts
hPa Trend Height
m
Period
s
Dir
20/09:00pm 16.7 SSE 11 14 1018.7 - 0.2 - - - - - - -
20/08:30pm 16.9 SSE 9 12 1018.7 - 0.2 - - - - - - -
20/08:00pm 17.1 SSE 8 11 1018.5 - 0.2 - - - - - - -
20/07:30pm 17.8 SSE 8 12 1018.1 - 0.2 - - - - - - -
20/07:00pm 18.4 S 8 11 1018.0 - 0.2 - - - - - - -
20/06:30pm 18.7 S 8 11 1017.9 - 0.2 - - - - - - -
20/06:00pm 18.9 SSE 10 12 1017.7 - 0.2 - - - - - - -
20/05:30pm 19.4 SSE 9 11 1017.3 - 0.2 - - - - - - -
20/05:00pm 19.3 SSE 8 12 1017.4 - 0.2 - - - - - - -
20/04:30pm 19.5 SSE 8 11 1017.4 - 0.2 - - - - - - -
20/04:00pm 19.9 SSE 8 12 1017.4 - 0.2 - - - - - - -
20/03:30pm 19.3 SE 7 11 1017.6 - 0.2 - - - - - - -
20/03:00pm 18.7 SE 8 11 1017.9 - 0.2 - - - - - - -
20/02:30pm 19.6 SE 8 11 1018.1 - 0.2 - - - - - - -
20/02:00pm 19.1 SE 9 11 1018.1 - 0.2 - - - - - - -
20/01:30pm 19.8 SSE 8 11 1018.2 - 0.2 - - - - - - -
20/01:00pm 19.5 SE 8 12 1018.4 - 0.2 - - - - - - -
20/12:30pm 19.6 SSE 9 12 1018.4 - 0.2 - - - - - - -
20/12:00pm 19.0 SSE 8 10 1018.7 - 0.2 - - - - - - -
20/11:30am 17.9 S 8 11 1018.8 - 0.2 - - - - - - -
20/11:00am 18.4 S 8 13 1019.0 - 0.2 - - - - - - -
20/10:30am 18.8 SSE 6 9 1019.1 - 0.2 - - - - - - -
20/10:00am 18.3 SSE 6 8 1018.9 - 0.0 - - - - - - -
20/09:30am 17.8 SE 5 8 1018.9 - 0.0 - - - - - - -
20/09:00am 17.4 SSE 6 9 1018.6 - 0.2 - - - - - - -
20/08:30am 17.0 S 4 6 1018.4 - 0.2 - - - - - - -
20/08:00am 16.7 S 5 7 1018.2 - 0.2 - - - - - - -
20/07:30am 15.5 S 6 8 1017.8 - 0.2 - - - - - - -
20/07:00am 15.5 S 7 9 1017.6 - 0.2 - - - - - - -
20/06:30am 14.7 SSW 7 11 1017.3 - 0.2 - - - - - - -
20/06:00am 15.0 SSW 9 11 1017.1 - 0.2 - - - - - - -
20/05:30am 15.4 SSW 7 11 1016.9 - 0.2 - - - - - - -
20/05:00am 14.5 SSW 6 7 1016.7 - 0.2 - - - - - - -
20/04:30am 15.1 SSW 7 11 1016.6 - 0.2 - - - - - - -
20/04:00am 15.3 SSW 9 12 1016.7 - 0.2 - - - - - - -
20/03:30am 15.8 SSW 9 13 1016.7 - 0.2 - - - - - - -
20/03:00am 15.7 SW 8 11 1016.8 - 0.2 - - - - - - -
20/02:30am 15.9 SSW 11 15 1016.9 - 0.2 - - - - - - -
20/02:00am 15.9 SSW 10 13 1017.0 - 0.2 - - - - - - -
20/01:30am 15.8 SSW 10 13 1017.2 - 0.2 - - - - - - -
20/01:00am 15.9 SSW 10 14 1017.3 - 0.2 - - - - - - -
20/12:30am 15.2 SSW 10 14 1017.4 - 0.2 - - - - - - -
20/12:00am 15.5 SSW 11 14 1017.3 - 0.2 - - - - - - -
 
Date/Time
CDT
Temp
°C
Wind Pressure Rain since
9am
mm
Weather Cloud Vis
km
Sea
Height
m
Swell
Dir  Spd
kts
Gust
kts
hPa Trend Height
m
Period
s
Dir
19/11:30pm 15.5 SSW 10 13 1017.5 - 0.2 - - - - - - -
19/11:00pm 15.4 SW 10 13 1017.6 - 0.2 - - - - - - -
19/10:30pm 15.6 SSW 11 15 1017.6 - 0.2 - - - - - - -
19/10:00pm 15.7 SSW 12 17 1017.5 - 0.2 - - - - - - -
19/09:30pm 16.0 SSW 14 18 1017.4 - 0.2 - - - - - - -
19/09:00pm 16.3 SSW 13 17 1017.0 - 0.2 - - - - - - -
19/08:30pm 16.5 SSW 13 19 1016.9 - 0.2 - - - - - - -
19/08:00pm 17.2 SSW 13 18 1016.6 - 0.2 - - - - - - -
19/07:30pm 17.3 SSW 10 13 1016.4 - 0.2 - - - - - - -
19/07:00pm 17.2 SSW 11 15 1016.2 - 0.2 - - - - - - -
19/06:30pm 18.1 WSW 10 16 1016.1 - 0.2 - - - - - - -
19/06:00pm 18.6 SW 13 17 1016.1 - 0.2 - - - - - - -
19/05:30pm 19.7 SW 13 19 1016.0 - 0.2 - - - - - - -
19/05:00pm 19.2 SW 13 19 1016.0 - 0.2 - - - - - - -
19/04:30pm 18.5 SW 10 19 1016.0 - 0.2 - - - - - - -
19/04:00pm 17.4 SSW 11 17 1016.2 - 0.0 - - - - - - -
19/03:30pm 17.6 SSE 10 14 1016.4 - 0.0 - - - - - - -
19/03:00pm 19.0 SW 13 18 1016.6 - 0.0 - - - - - - -
19/02:30pm 19.3 SW 11 16 1016.9 - 0.0 - - - - - - -
19/02:00pm 17.3 WSW 13 17 1017.2 - 0.0 - - - - - - -
19/01:30pm 18.9 SW 10 16 1017.3 - 0.0 - - - - - - -
19/01:00pm 17.9 SSW 11 18 1017.4 - 0.0 - - - - - - -
19/12:30pm 17.9 SW 13 20 1017.5 - 0.0 - - - - - - -
19/12:00pm 19.8 SW 13 21 1017.6 - 0.0 - - - - - - -
19/11:30am 19.1 SW 12 17 1017.7 - 0.0 - - - - - - -
19/11:00am 17.7 SW 13 19 1017.9 - 0.0 - - - - - - -
19/10:30am 17.8 SW 13 18 1017.9 - 0.0 - - - - - - -
19/10:00am 17.7 SSW 11 16 1017.9 - 0.0 - - - - - - -
19/09:30am 17.6 SSW 12 17 1017.7 - 0.0 - - - - - - -
19/09:00am 17.0 SW 9 15 1017.6 - 0.8 - - - - - - -
19/08:30am 16.6 SSW 11 13 1017.3 - 0.8 - - - - - - -
19/08:00am 16.2 SSW 10 15 1017.1 - 0.8 - - - - - - -
19/07:30am 15.2 SW 11 15 1017.1 - 0.8 - - - - - - -
19/07:00am 15.8 SSW 12 16 1016.9 - 0.8 - - - - - - -
19/06:30am 15.7 SW 10 14 1016.7 - 0.8 - - - - - - -
19/06:00am 15.3 SW 10 16 1016.6 - 0.8 - - - - - - -
19/05:30am 15.3 SW 11 16 1016.6 - 0.8 - - - - - - -
19/05:00am 15.1 SSW 11 15 1016.6 - 0.8 - - - - - - -
19/04:30am 14.7 SSW 12 18 1016.6 - 0.8 - - - - - - -
19/04:00am 15.1 SW 12 19 1016.6 - 0.8 - - - - - - -
19/03:30am 14.2 SW 7 10 1016.8 - 0.8 - - - - - - -
19/03:00am 15.0 SSW 15 22 1016.7 - 0.8 - - - - - - -
19/02:30am 15.5 SSW 13 19 1017.0 - 0.8 - - - - - - -
19/02:00am 15.5 SSW 12 17 1017.3 - 0.8 - - - - - - -
19/01:30am 15.0 SW 9 13 1017.7 - 0.8 - - - - - - -
19/01:00am 15.3 SSW 11 16 1017.9 - 0.8 - - - - - - -
19/12:30am 15.1 SSW 13 18 1018.0 - 0.8 - - - - - - -
19/12:00am 15.7 SSW 13 19 1017.9 - 0.8 - - - - - - -
 
Date/Time
CDT
Temp
°C
Wind Pressure Rain since
9am
mm
Weather Cloud Vis
km
Sea
Height
m
Swell
Dir  Spd
kts
Gust
kts
hPa Trend Height
m
Period
s
Dir
18/11:30pm 15.4 SSW 10 14 1017.8 - 0.8 - - - - - - -
18/11:00pm 15.4 SSW 12 16 1017.8 - 0.8 - - - - - - -
18/10:30pm 15.3 SSW 11 15 1017.8 - 0.8 - - - - - - -
18/10:00pm 15.4 SSW 12 17 1017.9 - 0.8 - - - - - - -
18/09:30pm 15.6 SSW 13 17 1017.7 - 0.8 - - - - - - -
18/09:00pm 16.1 SSW 17 22 1017.4 - 0.8 - - - - - - -
18/08:30pm 16.6 SW 12 17 1017.1 - 0.8 - - - - - - -
18/08:00pm 16.6 SSW 15 21 1016.9 - 0.8 - - - - - - -
18/07:30pm 16.9 SW 14 18 1016.4 - 0.8 - - - - - - -
18/07:00pm 17.7 WSW 12 18 1016.2 - 0.8 - - - - - - -
18/06:30pm 19.1 SW 13 20 1015.9 - 0.8 - - - - - - -
18/06:00pm 19.4 SW 10 17 1015.8 - 0.8 - - - - - - -
18/05:30pm 18.7 SW 13 17 1015.9 - 0.8 - - - - - - -
18/05:00pm 18.8 SW 13 17 1015.9 - 0.8 - - - - - - -
18/04:30pm 19.1 SW 11 18 1016.0 - 0.8 - - - - - - -
18/04:00pm 20.2 SW 12 19 1016.1 - 0.8 - - - - - - -
18/03:30pm 18.0 WSW 7 13 1016.5 - 0.8 - - - - - - -
18/03:00pm 18.4 SW 11 16 1016.7 - 0.8 - - - - - - -
18/02:30pm 19.1 SW 14 20 1016.7 - 0.8 - - - - - - -
18/02:00pm 18.1 SSW 15 19 1016.8 - 0.8 - - - - - - -
18/01:30pm 14.8 SW 11 15 1016.9 - 0.8 - - - - - - -
18/01:05pm 19.0 WSW 14 25 1016.6 - 0.0 - - - - - - -
18/01:00pm 18.5 SW 12 20 1016.4 - 0.0 - - - - - - -
18/12:30pm 19.6 SW 12 17 1016.5 - 0.0 - - - - - - -
18/12:00pm 18.6 SW 14 19 1016.5 - 0.0 - - - - - - -
18/11:30am 18.9 SW 13 18 1016.7 - 0.0 - - - - - - -
18/11:00am 18.4 SSW 16 21 1016.5 - 0.0 - - - - - - -
18/10:30am 18.3 SW 15 21 1016.5 - 0.0 - - - - - - -
18/10:00am 16.9 SW 14 23 1016.4 - 0.0 - - - - - - -
18/09:30am 16.6 SW 15 22 1016.2 - 0.0 - - - - - - -
18/09:00am 16.2 SW 13 19 1015.9 - 1.2 Recent precip. - - - - - -
18/08:30am 14.3 WSW 9 12 1015.7 - 1.2 - - - - - - -
18/08:00am 13.3 W 10 13 1015.6 - 0.8 - - - - - - -
18/07:30am 13.3 WNW 12 16 1015.2 - 0.0 - - - - - - -
18/07:00am 15.6 SW 11 15 1014.6 - 0.0 - - - - - - -
18/06:30am 16.1 SW 9 14 1014.1 - 0.0 - - - - - - -
18/06:00am 16.0 WSW 9 14 1013.9 - 0.0 - - - - - - -
18/05:30am 16.2 SW 13 17 1013.7 - 0.0 - - - - - - -
18/05:00am 16.1 SW 13 18 1013.8 - 0.0 - - - - - - -
18/04:30am 16.2 SW 12 19 1013.7 - 0.0 - - - - - - -
18/04:00am 16.5 WSW 10 17 1014.1 - 0.0 - - - - - - -
18/03:30am 16.2 SW 13 19 1014.3 - 0.0 - - - - - - -
18/03:00am 16.2 SW 12 19 1014.1 - 0.0 - - - - - - -
18/02:30am 16.0 SW 9 13 1014.4 - 0.0 - - - - - - -
18/02:00am 15.3 SW 11 17 1014.5 - 0.0 - - - - - - -
18/01:30am 16.8 SW 10 13 1014.6 - 0.0 - - - - - - -
18/01:00am 16.8 SW 10 15 1014.9 - 0.0 - - - - - - -
18/12:30am 16.8 SW 12 20 1014.9 - 0.0 - - - - - - -
18/12:00am 17.0 SW 8 13 1014.8 - 0.0 - - - - - - -
 
Date/Time
CDT
Temp
°C
Wind Pressure Rain since
9am
mm
Weather Cloud Vis
km
Sea
Height
m
Swell
Dir  Spd
kts
Gust
kts
hPa Trend Height
m
Period
s
Dir
17/11:30pm 16.3 WSW 7 11 1015.0 - 0.0 - - - - - - -
17/11:00pm 17.3 SW 12 18 1015.3 - 0.0 - - - - - - -
17/10:30pm 17.9 SW 15 22 1015.1 - 0.0 - - - - - - -
17/10:00pm 18.1 WSW 10 15 1015.2 - 0.0 - - - - - - -
17/09:30pm 18.4 SW 14 18 1015.0 - 0.0 - - - - - - -

Other Formats:

Comma delimited format used in spreadsheet applications
http://www.bom.gov.au/fwo/IDS60701/IDS60701.94809.axf

JavaScript Object Notation format (JSON) in row-major order
http://www.bom.gov.au/fwo/IDS60701/IDS60701.94809.json